Time;durP1;ratioP1;P1;durP2;ratioP2;P2;SDS_P1;SDS_P2;PMS_P1;PMS_P2;Temp;Humidity;BMP_temperature;BMP_pressure;BME280_temperature;BME280_humidity;BME280_pressure;Samples;Min_cycle;Max_cycle;Signal;HPM_P1;HPM_P2
2021/12/06 00:00:10;;;;;;;47.37;31.20;;;2.10;53.20;;;;;;6240451;28;20230;-55
2021/12/06 00:03:41;;;;;;;51.83;32.27;;;2.10;52.50;;;;;;6255254;28;20234;-56
2021/12/06 00:06:47;;;;;;;53.83;32.60;;;2.10;52.50;;;;;;6247203;28;20313;-55
2021/12/06 00:09:50;;;;;;;50.67;31.80;;;2.30;53.20;;;;;;6234859;28;20392;-55
2021/12/06 00:12:53;;;;;;;48.43;30.27;;;2.30;53.20;;;;;;6246548;28;20364;-55
2021/12/06 00:15:57;;;;;;;47.97;29.63;;;2.10;51.70;;;;;;6250895;28;20792;-54
2021/12/06 00:19:00;;;;;;;47.27;30.57;;;2.20;51.40;;;;;;6244874;28;20246;-55
2021/12/06 00:22:06;;;;;;;45.83;29.23;;;2.00;51.70;;;;;;6248049;28;20251;-54
2021/12/06 00:25:09;;;;;;;47.37;31.07;;;2.00;51.80;;;;;;6248241;28;20349;-57
2021/12/06 00:28:12;;;;;;;47.17;30.33;;;2.10;52.20;;;;;;6248138;28;20234;-63
2021/12/06 00:31:17;;;;;;;46.53;30.10;;;2.30;51.20;;;;;;6248049;28;20471;-55
2021/12/06 00:34:22;;;;;;;47.87;30.67;;;2.20;51.60;;;;;;6253007;28;20956;-55
2021/12/06 00:37:30;;;;;;;49.17;31.33;;;2.10;52.00;;;;;;6243258;28;20732;-54
2021/12/06 00:40:35;;;;;;;47.50;31.40;;;2.20;52.20;;;;;;6245753;28;20318;-54
2021/12/06 00:43:38;;;;;;;50.70;30.57;;;2.00;51.60;;;;;;6238213;28;20321;-54
2021/12/06 00:46:42;;;;;;;45.80;28.90;;;2.10;51.00;;;;;;6242435;28;20770;-54
2021/12/06 00:49:47;;;;;;;44.80;29.37;;;2.20;50.50;;;;;;6256402;28;20233;-55
2021/12/06 00:52:51;;;;;;;45.23;28.53;;;2.10;49.50;;;;;;6251252;28;20273;-54
2021/12/06 00:55:54;;;;;;;47.00;30.37;;;2.00;49.50;;;;;;6235556;28;20629;-56
2021/12/06 00:58:57;;;;;;;42.47;29.20;;;2.20;49.50;;;;;;6248454;28;20748;-55
2021/12/06 01:02:01;;;;;;;50.77;29.97;;;2.30;49.50;;;;;;6244200;28;20238;-54
2021/12/06 01:05:05;;;;;;;42.47;29.30;;;2.00;49.50;;;;;;6249546;28;20254;-54
2021/12/06 01:08:09;;;;;;;49.03;29.53;;;2.00;49.90;;;;;;6246543;28;20273;-54
2021/12/06 01:11:12;;;;;;;44.17;27.83;;;1.90;49.40;;;;;;6241666;28;20450;-55
2021/12/06 01:14:15;;;;;;;42.67;28.50;;;2.10;48.50;;;;;;6243436;28;20234;-55
2021/12/06 01:17:19;;;;;;;40.80;28.37;;;2.00;48.60;;;;;;6243443;28;20286;-56
2021/12/06 01:20:27;;;;;;;41.20;28.33;;;2.10;49.00;;;;;;6251680;28;20784;-55
2021/12/06 01:23:42;;;;;;;43.03;28.33;;;2.00;47.70;;;;;;6249819;28;20322;-54
2021/12/06 01:27:13;;;;;;;38.03;27.33;;;2.10;47.80;;;;;;6245019;28;20297;-56
2021/12/06 01:30:31;;;;;;;38.80;27.33;;;2.10;48.30;;;;;;6234649;28;20230;-55
2021/12/06 01:33:53;;;;;;;40.47;26.07;;;2.00;48.50;;;;;;6252014;28;20288;-54
2021/12/06 01:40:21;;;;;;;35.90;25.70;;;2.10;47.80;;;;;;6246740;28;20711;-56
2021/12/06 01:43:24;;;;;;;33.63;24.33;;;2.00;47.10;;;;;;6250642;28;20242;-54
2021/12/06 01:46:26;;;;;;;36.77;25.87;;;2.00;47.10;;;;;;6247293;28;20795;-55
2021/12/06 01:49:33;;;;;;;33.97;25.13;;;2.00;46.90;;;;;;6251274;28;20246;-54
2021/12/06 01:52:39;;;;;;;32.47;24.63;;;1.80;46.70;;;;;;6241974;28;20700;-55
2021/12/06 01:55:42;;;;;;;34.27;25.90;;;1.90;46.30;;;;;;6243024;28;20739;-55
2021/12/06 01:58:45;;;;;;;35.67;25.07;;;2.00;45.90;;;;;;6243742;28;20262;-54
2021/12/06 02:01:48;;;;;;;30.27;22.70;;;2.20;46.60;;;;;;6252389;28;20240;-55
2021/12/06 02:04:53;;;;;;;36.33;25.33;;;1.90;45.40;;;;;;6244986;28;20314;-56
2021/12/06 02:07:56;;;;;;;30.27;23.03;;;2.00;45.30;;;;;;6242690;28;20253;-52
2021/12/06 02:11:02;;;;;;;27.50;22.57;;;1.90;44.10;;;;;;6257455;28;20237;-54
2021/12/06 02:14:19;;;;;;;31.47;22.70;;;2.00;42.30;;;;;;6238765;28;20516;-53
2021/12/06 02:17:26;;;;;;;30.03;23.03;;;1.90;42.90;;;;;;6262332;28;20742;-56
2021/12/06 02:20:36;;;;;;;31.20;22.67;;;1.90;42.60;;;;;;6254418;28;20237;-55
2021/12/06 02:23:40;;;;;;;34.00;24.93;;;1.90;42.50;;;;;;6248536;28;20329;-55
2021/12/06 02:26:45;;;;;;;34.10;24.13;;;1.70;41.80;;;;;;6252439;28;20262;-55
2021/12/06 02:29:50;;;;;;;35.20;25.63;;;1.70;41.10;;;;;;6240053;28;20300;-54
2021/12/06 02:32:53;;;;;;;33.27;25.50;;;1.50;41.60;;;;;;6254984;28;20238;-54
2021/12/06 02:35:56;;;;;;;37.77;25.57;;;1.40;41.70;;;;;;6259647;28;20348;-54
2021/12/06 02:39:01;;;;;;;34.53;26.10;;;1.20;42.10;;;;;;6252997;28;20388;-60
2021/12/06 02:42:06;;;;;;;39.27;27.37;;;1.30;42.20;;;;;;6251495;28;20238;-54
2021/12/06 02:45:12;;;;;;;41.23;28.30;;;1.50;42.60;;;;;;6256374;28;20273;-54
2021/12/06 02:48:16;;;;;;;43.33;29.80;;;1.40;42.00;;;;;;6249765;28;20493;-53
2021/12/06 02:51:20;;;;;;;43.57;29.60;;;1.30;42.10;;;;;;6247709;28;20325;-54
2021/12/06 02:54:26;;;;;;;43.23;29.67;;;1.30;43.30;;;;;;6253134;28;20237;-56
2021/12/06 02:57:35;;;;;;;36.33;27.33;;;1.30;42.90;;;;;;6239458;28;20239;-55
2021/12/06 03:00:38;;;;;;;40.17;28.90;;;1.20;43.00;;;;;;6251115;28;20321;-55
2021/12/06 03:03:41;;;;;;;41.13;29.17;;;1.30;43.80;;;;;;6249530;28;20249;-56
2021/12/06 03:06:47;;;;;;;41.87;28.27;;;1.20;44.00;;;;;;6248208;28;20238;-55
2021/12/06 03:09:54;;;;;;;43.43;28.10;;;1.30;44.10;;;;;;6250096;28;20257;-54
2021/12/06 03:12:58;;;;;;;47.73;30.20;;;1.30;44.90;;;;;;6250897;28;20323;-53
2021/12/06 03:16:00;;;;;;;40.53;28.43;;;1.40;45.00;;;;;;6238017;28;20234;-53
2021/12/06 03:19:06;;;;;;;44.43;30.53;;;1.30;45.00;;;;;;6247284;28;20241;-54
2021/12/06 03:22:11;;;;;;;47.47;31.27;;;1.30;44.60;;;;;;6250723;28;20269;-54
2021/12/06 03:25:18;;;;;;;41.17;29.87;;;1.50;44.20;;;;;;6248763;28;20250;-55
2021/12/06 03:28:21;;;;;;;38.57;28.73;;;1.40;44.00;;;;;;6242240;28;20371;-53
2021/12/06 03:31:25;;;;;;;43.13;29.60;;;1.30;44.40;;;;;;6245217;28;20276;-56
2021/12/06 03:34:29;;;;;;;44.17;30.80;;;1.20;44.30;;;;;;6254333;28;20797;-55
2021/12/06 03:37:31;;;;;;;43.17;29.63;;;1.40;43.00;;;;;;6249917;28;20552;-58
2021/12/06 03:40:36;;;;;;;40.57;29.70;;;1.40;42.50;;;;;;6248922;28;20235;-55
2021/12/06 03:43:39;;;;;;;44.03;31.47;;;1.40;43.20;;;;;;6246859;28;20329;-53
2021/12/06 03:46:42;;;;;;;42.63;29.13;;;1.40;43.70;;;;;;6251310;28;20238;-55
2021/12/06 03:49:45;;;;;;;44.60;30.27;;;1.50;43.10;;;;;;6240356;28;20268;-53
2021/12/06 03:52:48;;;;;;;45.83;31.17;;;1.50;43.30;;;;;;6255012;28;20625;-54
2021/12/06 03:55:52;;;;;;;41.83;29.00;;;1.60;43.30;;;;;;6245495;28;20273;-55
2021/12/06 03:58:55;;;;;;;48.30;30.27;;;1.50;43.30;;;;;;6234903;28;20239;-54
2021/12/06 04:01:58;;;;;;;42.27;30.23;;;1.50;43.60;;;;;;6252569;28;20750;-54
2021/12/06 04:05:01;;;;;;;47.30;30.90;;;1.40;43.80;;;;;;6249386;28;20302;-54
2021/12/06 04:08:04;;;;;;;44.33;29.93;;;1.30;43.40;;;;;;6249127;28;20293;-55
2021/12/06 04:11:09;;;;;;;46.93;30.77;;;1.50;44.40;;;;;;6242859;28;20229;-54
2021/12/06 04:14:13;;;;;;;45.60;31.33;;;1.40;43.50;;;;;;6246656;28;21461;-55
2021/12/06 04:17:16;;;;;;;40.90;29.87;;;1.70;43.20;;;;;;6232958;28;20693;-55
2021/12/06 04:20:19;;;;;;;47.40;30.27;;;1.20;41.60;;;;;;6243756;28;20265;-53
2021/12/06 04:23:22;;;;;;;44.67;32.13;;;1.20;42.00;;;;;;6238754;28;20254;-54
2021/12/06 04:26:27;;;;;;;43.70;29.77;;;1.40;43.10;;;;;;6240731;28;20258;-54
2021/12/06 04:29:30;;;;;;;48.87;31.00;;;1.50;43.50;;;;;;6237100;28;20744;-55
2021/12/06 04:32:33;;;;;;;41.07;28.67;;;1.60;42.70;;;;;;6223370;28;20458;-54
2021/12/06 04:35:37;;;;;;;47.73;30.47;;;1.50;43.20;;;;;;6237085;28;20678;-54
2021/12/06 04:38:40;;;;;;;40.47;28.83;;;1.40;43.10;;;;;;6235868;28;20235;-51
2021/12/06 04:41:44;;;;;;;47.83;32.17;;;1.60;42.20;;;;;;6231869;28;20368;-53
2021/12/06 04:44:48;;;;;;;45.07;31.17;;;1.10;41.70;;;;;;6235173;28;20609;-54
2021/12/06 04:47:51;;;;;;;48.87;32.07;;;1.50;42.50;;;;;;6225778;28;20239;-54
2021/12/06 04:50:54;;;;;;;50.03;32.40;;;1.60;42.80;;;;;;6237374;28;20261;-53
2021/12/06 04:53:57;;;;;;;48.73;31.17;;;1.60;42.90;;;;;;6236609;28;20234;-54
2021/12/06 04:57:08;;;;;;;46.63;30.47;;;1.20;41.70;;;;;;6233624;28;20384;-56
2021/12/06 05:00:16;;;;;;;44.70;29.93;;;1.50;42.90;;;;;;6232486;28;20254;-53
2021/12/06 05:03:20;;;;;;;48.80;31.27;;;1.60;43.20;;;;;;6225740;28;20239;-54
2021/12/06 05:06:27;;;;;;;45.07;29.70;;;1.30;43.80;;;;;;6234495;28;20243;-55
2021/12/06 05:09:33;;;;;;;50.60;31.87;;;1.50;44.40;;;;;;6225359;28;20305;-54
2021/12/06 05:12:38;;;;;;;44.50;31.43;;;1.30;44.40;;;;;;6228989;28;20501;-54
2021/12/06 05:15:43;;;;;;;46.83;30.83;;;1.40;44.50;;;;;;6229508;28;20257;-54
2021/12/06 05:18:46;;;;;;;41.23;30.67;;;1.50;43.20;;;;;;6228647;28;20530;-54
2021/12/06 05:21:49;;;;;;;46.57;29.93;;;1.50;43.30;;;;;;6233441;28;20531;-54
2021/12/06 05:24:52;;;;;;;43.27;30.53;;;1.30;43.00;;;;;;6234607;28;20437;-53
2021/12/06 05:27:58;;;;;;;43.73;30.03;;;1.60;44.40;;;;;;6232286;28;20231;-54
2021/12/06 05:31:01;;;;;;;46.43;30.60;;;1.60;44.00;;;;;;6233876;28;20350;-54
2021/12/06 05:34:09;;;;;;;46.30;31.97;;;1.70;44.70;;;;;;6235398;28;20237;-54
2021/12/06 05:37:15;;;;;;;48.17;30.83;;;1.60;45.00;;;;;;6230589;28;20719;-54
2021/12/06 05:40:21;;;;;;;47.07;30.83;;;1.40;43.60;;;;;;6237098;28;20902;-54
2021/12/06 05:43:26;;;;;;;46.33;29.20;;;1.50;44.10;;;;;;6224936;28;20272;-54
2021/12/06 05:46:29;;;;;;;38.83;28.83;;;1.50;43.70;;;;;;6238106;28;20316;-53
2021/12/06 05:49:32;;;;;;;45.47;29.47;;;1.50;44.00;;;;;;6236582;28;20801;-54
2021/12/06 05:52:35;;;;;;;43.43;29.80;;;1.60;44.00;;;;;;6232172;28;20242;-54
2021/12/06 05:55:38;;;;;;;43.13;29.73;;;1.50;43.70;;;;;;6239288;28;20690;-54
2021/12/06 05:58:42;;;;;;;42.83;29.10;;;1.60;44.80;;;;;;6239236;28;20270;-54
2021/12/06 06:01:48;;;;;;;44.20;30.50;;;1.60;43.70;;;;;;6237507;28;20797;-53
2021/12/06 06:04:51;;;;;;;40.27;29.17;;;1.50;43.90;;;;;;6235976;28;20230;-55
2021/12/06 06:07:53;;;;;;;45.37;29.90;;;1.60;44.00;;;;;;6230697;28;20291;-54
2021/12/06 06:10:56;;;;;;;42.23;28.67;;;1.60;44.00;;;;;;6239198;28;20906;-54
2021/12/06 06:14:00;;;;;;;41.53;28.37;;;1.50;44.30;;;;;;6238713;28;20672;-55
2021/12/06 06:17:08;;;;;;;41.03;28.63;;;1.50;44.40;;;;;;6233852;28;20245;-54
2021/12/06 06:20:16;;;;;;;40.03;28.03;;;1.40;44.50;;;;;;6241990;28;20242;-54
2021/12/06 06:23:19;;;;;;;42.23;29.97;;;1.50;44.30;;;;;;6239673;28;20334;-54
2021/12/06 06:26:22;;;;;;;44.27;28.80;;;1.60;44.20;;;;;;6238554;28;20294;-54
2021/12/06 06:29:27;;;;;;;40.20;28.50;;;1.40;43.90;;;;;;6236401;28;20311;-54
2021/12/06 06:32:29;;;;;;;43.67;30.10;;;1.50;44.90;;;;;;6231404;28;20238;-54
2021/12/06 06:35:32;;;;;;;45.13;29.77;;;1.40;45.00;;;;;;6230076;28;20234;-54
2021/12/06 06:38:35;;;;;;;40.90;28.90;;;1.50;45.60;;;;;;6229630;28;20231;-54
2021/12/06 06:41:38;;;;;;;43.30;28.57;;;1.70;44.80;;;;;;6236629;28;20253;-55
2021/12/06 06:44:42;;;;;;;45.17;29.80;;;1.60;45.60;;;;;;6229779;28;20731;-54
2021/12/06 06:47:46;;;;;;;41.43;28.83;;;1.70;45.70;;;;;;6230062;28;20270;-55
2021/12/06 06:50:48;;;;;;;47.37;30.30;;;1.80;46.30;;;;;;6233366;28;20256;-54
2021/12/06 06:53:51;;;;;;;44.10;29.93;;;1.80;46.60;;;;;;6235592;28;20258;-55
2021/12/06 06:56:54;;;;;;;44.67;29.43;;;1.70;46.50;;;;;;6233454;28;20254;-54
2021/12/06 06:59:58;;;;;;;46.03;29.70;;;1.50;46.40;;;;;;6235645;28;20493;-54
2021/12/06 07:03:01;;;;;;;42.57;28.50;;;1.60;46.50;;;;;;6239401;28;20227;-55
2021/12/06 07:06:05;;;;;;;40.00;29.03;;;1.70;46.60;;;;;;6235064;28;20237;-54
2021/12/06 07:09:07;;;;;;;46.37;31.67;;;1.60;46.70;;;;;;6235461;28;20250;-55
2021/12/06 07:12:15;;;;;;;42.57;29.80;;;1.60;46.70;;;;;;6242229;28;20279;-55
2021/12/06 07:15:21;;;;;;;43.03;29.57;;;1.80;46.70;;;;;;6236101;28;20284;-54
2021/12/06 07:18:24;;;;;;;42.27;28.90;;;1.80;48.30;;;;;;6231718;28;20238;-54
2021/12/06 07:21:26;;;;;;;43.37;30.27;;;1.60;46.90;;;;;;6236973;28;20317;-54
2021/12/06 07:24:29;;;;;;;43.83;28.07;;;1.70;47.10;;;;;;6234995;28;20396;-54
2021/12/06 07:27:33;;;;;;;40.37;27.70;;;1.80;48.00;;;;;;6236041;28;20245;-54
2021/12/06 07:30:37;;;;;;;38.57;28.03;;;1.70;46.70;;;;;;6226724;28;20360;-54
2021/12/06 07:33:40;;;;;;;41.57;27.37;;;1.60;46.90;;;;;;6226058;28;20259;-53
2021/12/06 07:36:43;;;;;;;43.27;28.83;;;1.80;48.20;;;;;;6237591;28;20233;-55
2021/12/06 07:39:46;;;;;;;41.50;28.33;;;2.00;48.20;;;;;;6233872;28;20237;-51
2021/12/06 07:42:49;;;;;;;42.60;28.17;;;1.70;48.30;;;;;;6237360;28;20319;-54
2021/12/06 07:45:53;;;;;;;41.00;27.57;;;1.80;47.50;;;;;;6236601;28;20239;-55
2021/12/06 07:48:56;;;;;;;39.43;27.37;;;1.80;47.80;;;;;;6234206;28;20253;-55
2021/12/06 07:51:59;;;;;;;44.27;28.43;;;1.80;48.60;;;;;;6232783;28;20612;-55
2021/12/06 07:55:02;;;;;;;45.03;28.77;;;1.90;48.30;;;;;;6235972;28;20258;-55
2021/12/06 07:58:08;;;;;;;43.70;27.93;;;2.10;48.70;;;;;;6232034;28;20752;-54
2021/12/06 08:01:12;;;;;;;34.33;25.63;;;2.10;49.40;;;;;;6242371;28;20573;-56
2021/12/06 08:04:15;;;;;;;37.83;26.33;;;2.00;48.70;;;;;;6238338;28;20246;-54
2021/12/06 08:07:18;;;;;;;37.37;26.67;;;2.10;47.80;;;;;;6235250;28;20234;-56
2021/12/06 08:10:21;;;;;;;34.23;25.63;;;2.20;47.90;;;;;;6225360;28;20329;-55
2021/12/06 08:13:27;;;;;;;37.63;25.63;;;2.30;47.80;;;;;;6236680;28;20684;-59
2021/12/06 08:16:34;;;;;;;39.97;25.37;;;2.20;47.80;;;;;;6236002;28;20630;-56
2021/12/06 08:19:36;;;;;;;37.37;25.03;;;2.20;48.00;;;;;;6230778;28;20749;-56
2021/12/06 08:22:39;;;;;;;35.33;26.73;;;2.40;47.30;;;;;;6227056;28;20381;-56
2021/12/06 08:25:44;;;;;;;35.97;24.90;;;2.20;46.70;;;;;;6235778;28;20572;-55
2021/12/06 08:28:49;;;;;;;42.20;25.47;;;2.60;46.40;;;;;;6233757;28;20625;-55
2021/12/06 08:31:53;;;;;;;32.83;24.63;;;2.40;46.30;;;;;;6225063;28;20314;-55
2021/12/06 08:48:04;;;;;;;35.90;24.17;;;2.60;44.10;;;;;;6231014;28;20214;-56
2021/12/06 08:51:09;;;;;;;36.57;24.80;;;2.60;45.40;;;;;;6231281;28;20256;-55
2021/12/06 08:54:14;;;;;;;36.33;24.80;;;2.50;44.70;;;;;;6221942;28;20616;-56
2021/12/06 08:57:17;;;;;;;36.43;24.30;;;2.60;44.70;;;;;;6225657;28;20253;-54
2021/12/06 09:00:23;;;;;;;34.83;23.80;;;2.70;44.20;;;;;;6230529;28;20274;-56
2021/12/06 09:03:27;;;;;;;32.60;24.53;;;2.70;43.10;;;;;;6229587;28;20239;-55
2021/12/06 09:06:31;;;;;;;33.63;24.80;;;2.80;42.10;;;;;;6232136;28;20238;-53
2021/12/06 09:09:34;;;;;;;29.93;23.73;;;2.80;41.50;;;;;;6223155;28;20238;-55
2021/12/06 09:12:37;;;;;;;40.00;24.67;;;3.10;41.70;;;;;;6220626;28;20247;-54
2021/12/06 09:15:40;;;;;;;35.60;24.13;;;2.90;40.60;;;;;;6227319;28;20324;-57
2021/12/06 09:18:45;;;;;;;32.57;24.33;;;3.00;40.50;;;;;;6225231;28;20433;-55
2021/12/06 09:21:48;;;;;;;30.77;22.43;;;3.20;41.20;;;;;;6228220;28;20239;-54
2021/12/06 09:24:52;;;;;;;33.77;23.77;;;3.00;40.70;;;;;;6222288;28;20244;-56
2021/12/06 09:27:56;;;;;;;33.67;24.50;;;3.10;39.30;;;;;;6230451;28;20252;-55
2021/12/06 09:31:01;;;;;;;31.67;23.27;;;3.00;39.30;;;;;;6227786;28;20235;-54
2021/12/06 09:34:06;;;;;;;33.47;23.23;;;3.30;40.10;;;;;;6226231;28;20827;-54
2021/12/06 09:37:09;;;;;;;37.50;24.27;;;3.10;37.80;;;;;;6230603;28;20312;-54
2021/12/06 09:40:14;;;;;;;30.37;22.73;;;3.30;36.10;;;;;;6233965;28;20567;-55
2021/12/06 09:43:18;;;;;;;33.90;24.03;;;3.10;36.90;;;;;;6234228;28;20618;-55
2021/12/06 09:46:21;;;;;;;35.17;23.90;;;3.30;36.20;;;;;;6231736;28;20738;-55
2021/12/06 09:49:26;;;;;;;35.53;23.03;;;3.20;36.70;;;;;;6234417;28;20306;-55
2021/12/06 09:52:29;;;;;;;29.33;24.03;;;3.10;35.80;;;;;;6226205;28;20683;-55
2021/12/06 09:55:33;;;;;;;29.80;22.33;;;3.40;36.00;;;;;;6223323;28;20316;-54
2021/12/06 09:58:37;;;;;;;29.00;23.03;;;3.20;36.50;;;;;;6230079;28;20282;-54
2021/12/06 10:01:43;;;;;;;30.70;22.53;;;3.30;36.60;;;;;;6230691;28;20735;-56
2021/12/06 10:04:53;;;;;;;31.30;22.60;;;3.20;36.00;;;;;;6233290;28;20387;-56
2021/12/06 10:07:58;;;;;;;28.33;22.17;;;3.40;34.90;;;;;;6231736;28;20231;-55
2021/12/06 10:11:01;;;;;;;29.80;22.17;;;3.50;35.10;;;;;;6232734;28;20226;-53
2021/12/06 10:14:04;;;;;;;28.80;21.90;;;3.50;35.80;;;;;;6235089;28;20607;-54
2021/12/06 10:17:08;;;;;;;28.93;21.90;;;3.60;35.20;;;;;;6229804;28;20380;-55
2021/12/06 10:20:13;;;;;;;29.50;22.00;;;3.40;35.30;;;;;;6228880;28;20231;-55
2021/12/06 10:23:18;;;;;;;29.00;22.77;;;3.30;33.80;;;;;;6230341;28;20331;-58
2021/12/06 10:26:24;;;;;;;26.83;20.80;;;3.30;33.10;;;;;;6230862;28;20374;-55
2021/12/06 10:29:33;;;;;;;24.20;20.27;;;3.60;33.60;;;;;;6234229;28;20250;-55
2021/12/06 10:32:39;;;;;;;25.73;20.60;;;3.50;33.00;;;;;;6241051;28;20246;-55
2021/12/06 10:35:45;;;;;;;27.70;21.10;;;3.30;31.40;;;;;;6236412;28;20246;-55
2021/12/06 10:38:53;;;;;;;28.13;19.43;;;3.70;29.50;;;;;;6235051;28;20315;-54
2021/12/06 10:41:56;;;;;;;24.47;19.70;;;3.50;30.40;;;;;;6238509;28;20714;-56
2021/12/06 10:45:05;;;;;;;24.87;19.57;;;3.40;30.20;;;;;;6235572;28;20780;-54
2021/12/06 10:48:12;;;;;;;23.90;19.33;;;3.20;30.90;;;;;;6228489;28;20332;-54
2021/12/06 10:51:18;;;;;;;22.73;18.97;;;3.30;29.50;;;;;;6236668;28;20234;-55
2021/12/06 10:54:34;;;;;;;24.17;18.83;;;3.40;30.60;;;;;;6237379;28;20249;-54
2021/12/06 10:57:48;;;;;;;23.03;18.50;;;3.40;30.70;;;;;;6237376;28;20258;-54
2021/12/06 11:00:54;;;;;;;22.93;19.10;;;3.30;29.60;;;;;;6233211;28;20727;-55
2021/12/06 11:04:00;;;;;;;23.73;18.10;;;3.40;29.90;;;;;;6237977;28;20238;-54
2021/12/06 11:07:06;;;;;;;24.17;19.43;;;3.40;29.80;;;;;;6231898;28;20353;-54
2021/12/06 11:10:10;;;;;;;22.20;18.10;;;3.20;30.20;;;;;;6233372;28;20286;-54
2021/12/06 11:13:23;;;;;;;21.23;17.70;;;3.60;31.00;;;;;;6238301;28;20238;-55
2021/12/06 11:16:29;;;;;;;19.13;16.83;;;3.50;30.80;;;;;;6236511;28;20265;-55
2021/12/06 11:19:32;;;;;;;21.17;17.97;;;3.60;30.00;;;;;;6238783;28;20246;-55
2021/12/06 11:22:38;;;;;;;20.77;15.27;;;3.60;27.90;;;;;;6230898;28;20478;-55
2021/12/06 11:25:41;;;;;;;20.77;16.47;;;3.50;28.80;;;;;;6230823;28;20250;-54
2021/12/06 11:28:44;;;;;;;23.23;17.17;;;3.80;28.70;;;;;;6236741;28;20305;-54
2021/12/06 11:31:56;;;;;;;20.57;15.80;;;3.70;26.60;;;;;;6227743;28;20223;-54
2021/12/06 11:35:03;;;;;;;22.97;16.17;;;3.70;26.50;;;;;;6235571;28;20601;-52
2021/12/06 11:38:12;;;;;;;18.63;15.20;;;3.50;26.70;;;;;;6237138;28;20333;-54
2021/12/06 11:41:15;;;;;;;17.80;15.27;;;3.70;25.80;;;;;;6233500;28;20342;-54
2021/12/06 11:44:22;;;;;;;17.97;14.23;;;3.70;25.80;;;;;;6232394;28;20549;-55
2021/12/06 11:47:25;;;;;;;17.00;14.07;;;3.60;26.10;;;;;;6238167;28;20718;-55
2021/12/06 11:50:28;;;;;;;16.53;14.80;;;3.90;26.00;;;;;;6235747;28;20243;-55
2021/12/06 11:53:36;;;;;;;17.40;14.57;;;3.70;24.00;;;;;;6229686;28;20238;-54
2021/12/06 11:56:44;;;;;;;18.43;14.50;;;3.90;23.80;;;;;;6233538;28;20239;-54
2021/12/06 11:59:55;;;;;;;17.33;14.57;;;4.00;24.80;;;;;;6229542;28;20234;-53
2021/12/06 12:03:00;;;;;;;18.73;15.33;;;3.80;25.00;;;;;;6235071;28;20303;-55
2021/12/06 12:06:20;;;;;;;16.90;14.93;;;4.00;22.20;;;;;;6231063;28;20317;-54
2021/12/06 12:09:28;;;;;;;18.43;14.83;;;3.80;22.40;;;;;;6226989;28;20498;-55
2021/12/06 12:12:31;;;;;;;18.60;15.30;;;3.80;22.00;;;;;;6234595;28;20241;-54
2021/12/06 12:15:35;;;;;;;17.90;14.63;;;3.70;22.90;;;;;;6216201;28;20357;-55
2021/12/06 12:18:41;;;;;;;17.87;14.57;;;3.80;22.90;;;;;;6227518;28;20707;-55
2021/12/06 12:21:44;;;;;;;16.27;14.53;;;3.90;21.80;;;;;;6234523;28;20231;-55
2021/12/06 12:24:52;;;;;;;18.97;15.00;;;3.80;22.10;;;;;;6235193;28;20329;-54
2021/12/06 12:28:02;;;;;;;18.30;14.30;;;3.80;23.00;;;;;;6230644;28;20380;-54
2021/12/06 12:31:08;;;;;;;17.77;15.23;;;3.70;23.40;;;;;;6226979;28;20745;-55
2021/12/06 12:34:11;;;;;;;17.10;15.20;;;3.20;22.90;;;;;;6226324;28;20234;-54
2021/12/06 12:37:17;;;;;;;17.23;15.37;;;3.70;22.60;;;;;;6235370;28;20470;-54
2021/12/06 12:40:25;;;;;;;19.23;15.67;;;3.70;23.30;;;;;;6225700;28;20231;-55
2021/12/06 12:43:35;;;;;;;17.50;14.83;;;3.80;24.20;;;;;;6234216;28;20832;-54
2021/12/06 12:46:41;;;;;;;16.33;14.63;;;3.70;21.40;;;;;;6231978;28;20552;-54
2021/12/06 12:49:47;;;;;;;17.10;14.53;;;3.80;23.20;;;;;;6234837;28;20641;-56
2021/12/06 12:52:55;;;;;;;17.23;15.43;;;3.80;23.10;;;;;;6234181;28;20765;-54
2021/12/06 12:55:58;;;;;;;20.50;15.83;;;3.70;20.40;;;;;;6233695;28;20322;-55
2021/12/06 12:59:18;;;;;;;21.40;15.43;;;3.60;20.90;;;;;;6235256;28;20398;-55
2021/12/06 13:02:30;;;;;;;18.57;15.73;;;3.60;22.00;;;;;;6219857;28;20299;-55
2021/12/06 13:05:32;;;;;;;19.23;15.70;;;3.80;22.90;;;;;;6235207;28;20580;-56
2021/12/06 13:08:36;;;;;;;16.00;14.37;;;3.60;22.60;;;;;;6233799;28;20595;-55
2021/12/06 13:12:05;;;;;;;16.40;14.53;;;3.50;23.10;;;;;;6229304;28;20380;-54
2021/12/06 13:15:15;;;;;;;17.57;14.37;;;3.80;22.90;;;;;;6234052;28;20242;-55
2021/12/06 13:18:50;;;;;;;18.40;15.30;;;3.60;21.90;;;;;;6237878;28;20272;-55
2021/12/06 13:22:16;;;;;;;17.53;15.83;;;3.80;22.10;;;;;;6231352;28;20331;-55
2021/12/06 13:25:20;;;;;;;18.17;14.43;;;3.90;20.70;;;;;;6225399;28;20724;-55
2021/12/06 13:28:25;;;;;;;16.13;14.43;;;3.80;21.90;;;;;;6232543;28;20231;-55
2021/12/06 13:31:27;;;;;;;15.87;14.23;;;3.50;21.20;;;;;;6231078;28;20842;-55
2021/12/06 13:34:32;;;;;;;16.33;14.20;;;3.90;21.10;;;;;;6228354;28;20288;-55
2021/12/06 13:37:34;;;;;;;17.07;14.43;;;3.70;20.50;;;;;;6234867;28;20622;-55
2021/12/06 13:40:41;;;;;;;15.90;13.70;;;3.80;21.20;;;;;;6232288;28;20605;-54
2021/12/06 13:43:50;;;;;;;20.47;16.20;;;3.70;21.80;;;;;;6224507;28;20243;-55
2021/12/06 13:46:54;;;;;;;19.00;14.97;;;3.70;21.70;;;;;;6223692;28;20235;-55
2021/12/06 13:50:00;;;;;;;17.73;15.23;;;3.60;22.50;;;;;;6225487;28;20237;-55
2021/12/06 13:53:04;;;;;;;21.67;15.23;;;3.30;22.20;;;;;;6237863;28;20713;-54
2021/12/06 13:56:09;;;;;;;19.93;15.97;;;3.50;23.10;;;;;;6233187;28;20280;-54
2021/12/06 13:59:15;;;;;;;20.00;15.10;;;3.50;23.60;;;;;;6230148;28;20348;-55
2021/12/06 14:02:23;;;;;;;18.13;15.73;;;3.50;23.90;;;;;;6231083;28;20317;-55
2021/12/06 14:05:31;;;;;;;16.37;14.67;;;3.60;24.40;;;;;;6239506;28;20326;-55
2021/12/06 14:08:34;;;;;;;20.33;15.93;;;3.40;23.40;;;;;;6238035;28;20258;-55
2021/12/06 14:11:38;;;;;;;17.67;15.83;;;3.40;23.40;;;;;;6228476;28;20234;-55
2021/12/06 14:14:43;;;;;;;18.03;15.50;;;3.20;24.30;;;;;;6237697;28;20236;-54
2021/12/06 14:17:48;;;;;;;17.47;15.37;;;3.30;24.70;;;;;;6238507;28;20623;-55
2021/12/06 14:20:53;;;;;;;16.30;14.60;;;3.10;25.40;;;;;;6229542;28;20296;-54
2021/12/06 14:23:58;;;;;;;16.67;14.80;;;3.30;25.90;;;;;;6239452;28;20231;-54
2021/12/06 14:27:02;;;;;;;19.27;15.47;;;2.90;26.10;;;;;;6238613;28;20320;-54
2021/12/06 14:30:09;;;;;;;17.50;14.93;;;3.20;26.40;;;;;;6237466;28;20267;-54
2021/12/06 14:33:12;;;;;;;18.60;15.90;;;3.10;26.10;;;;;;6235414;28;20234;-55
2021/12/06 14:36:21;;;;;;;17.47;15.30;;;3.00;26.20;;;;;;6230824;28;20292;-53
2021/12/06 14:39:46;;;;;;;19.60;15.50;;;3.10;26.80;;;;;;6236138;28;20242;-54
2021/12/06 14:42:49;;;;;;;18.20;15.00;;;3.00;26.90;;;;;;6238854;28;20306;-55
2021/12/06 14:46:00;;;;;;;17.03;15.10;;;2.90;27.70;;;;;;6235659;28;20718;-55
2021/12/06 14:49:11;;;;;;;17.70;14.90;;;3.10;27.80;;;;;;6228868;28;20235;-55
2021/12/06 14:52:21;;;;;;;17.57;15.67;;;3.10;28.40;;;;;;6232713;28;20246;-55
2021/12/06 14:55:39;;;;;;;18.03;14.63;;;3.10;28.80;;;;;;6226856;28;20259;-53
2021/12/06 14:59:05;;;;;;;18.00;15.33;;;3.10;29.50;;;;;;6230750;28;20728;-53
2021/12/06 15:02:09;;;;;;;16.40;14.77;;;3.10;29.40;;;;;;6234646;28;20247;-55
2021/12/06 15:05:14;;;;;;;19.33;14.67;;;2.80;29.10;;;;;;6230299;28;20231;-56
2021/12/06 15:08:21;;;;;;;17.87;15.13;;;3.00;29.20;;;;;;6237079;28;20690;-56
2021/12/06 15:11:26;;;;;;;18.80;16.07;;;2.80;29.30;;;;;;6235587;28;20272;-54
2021/12/06 15:14:29;;;;;;;18.13;15.43;;;2.70;29.40;;;;;;6236067;28;20330;-56
2021/12/06 15:17:33;;;;;;;20.10;16.13;;;3.00;30.40;;;;;;6231430;28;20273;-55
2021/12/06 15:20:39;;;;;;;19.43;15.93;;;2.70;31.30;;;;;;6237059;28;20238;-55
2021/12/06 15:23:47;;;;;;;20.33;16.00;;;2.70;30.60;;;;;;6228508;28;20642;-55
2021/12/06 15:26:55;;;;;;;19.27;16.13;;;2.90;30.40;;;;;;6237064;28;20724;-55
2021/12/06 15:30:06;;;;;;;21.47;17.10;;;2.70;31.80;;;;;;6230763;28;20233;-55
2021/12/06 15:33:13;;;;;;;21.10;17.43;;;2.70;31.70;;;;;;6232835;28;20296;-56
2021/12/06 15:36:19;;;;;;;19.70;16.50;;;2.80;31.90;;;;;;6212972;28;20238;-55
2021/12/06 15:39:22;;;;;;;21.47;16.97;;;2.70;32.60;;;;;;6230825;28;20317;-54
2021/12/06 15:42:27;;;;;;;22.60;17.30;;;3.00;33.20;;;;;;6231935;28;20250;-56
2021/12/06 15:45:30;;;;;;;21.43;18.17;;;2.60;32.80;;;;;;6234225;28;20299;-55
2021/12/06 15:48:38;;;;;;;23.13;18.27;;;2.60;34.10;;;;;;6237239;28;20235;-55
2021/12/06 15:51:47;;;;;;;23.17;17.60;;;2.60;35.10;;;;;;6235400;28;20317;-55
2021/12/06 15:54:53;;;;;;;22.23;15.90;;;2.80;35.30;;;;;;6233724;28;20712;-55
2021/12/06 15:58:01;;;;;;;21.30;16.97;;;2.50;35.30;;;;;;6233141;28;20552;-54
2021/12/06 16:01:07;;;;;;;20.70;16.63;;;2.60;36.50;;;;;;6234424;28;20330;-54
2021/12/06 16:04:18;;;;;;;20.43;15.70;;;2.50;35.40;;;;;;6236227;28;20572;-55
2021/12/06 16:07:32;;;;;;;22.50;15.97;;;2.50;35.30;;;;;;6235755;28;20818;-55